New Baltimore, Virginia
Current Conditions -  °F | °C
As of 8:45 AM on Thursday 23 Oct 2014 (Local Time) from KHEF Reporting Station
Broken Clouds Broken Clouds  
Wind Chill: 54°   Ceiling: 6500
Heat Index: 54°   Visibility: 10mi
Dew Point: 45°   Wind: 14mph
Humidity: 72%   Direction: 320°NW
Pressure: 29.94"   Gusts: 24mph
Location:  38.754°N, 77.7224°W
Report Text: KHEF 231245Z 32012G21KT 10SM BKN065 BKN085 12/07 A2994
Loading
Personal Weather Stations






























Interactive Weather Map
Tropical Storm Tracking
New forecast layout! Learn more

10-Day Weather Forecast

Advertisements
Track Severe Weather on mobile